createdAt,value
2022-10-02T00:02:16.306Z,2.47
2022-10-02T00:04:48.477Z,1.80
2022-10-02T00:07:18.045Z,2.40
2022-10-02T00:09:49.887Z,2.75
2022-10-02T00:12:19.434Z,2.10
2022-10-02T00:14:48.135Z,2.75
2022-10-02T00:17:17.898Z,3.05
2022-10-02T00:19:47.221Z,3.40
2022-10-02T00:22:24.763Z,2.67
2022-10-02T00:24:55.443Z,2.33
2022-10-02T00:27:34.538Z,2.72
2022-10-02T00:30:03.511Z,1.95
2022-10-02T00:32:32.899Z,2.55
2022-10-02T00:35:19.540Z,2.75
2022-10-02T00:37:53.472Z,2.53
2022-10-02T00:40:37.207Z,2.38
2022-10-02T00:43:11.208Z,1.92
2022-10-02T00:45:49.300Z,3.17
2022-10-02T00:48:32.405Z,2.03
2022-10-02T00:51:03.124Z,3.00
2022-10-02T00:53:36.518Z,2.33
2022-10-02T00:56:13.700Z,2.50
2022-10-02T00:58:50.192Z,2.90
2022-10-02T01:01:19.757Z,2.47
2022-10-02T01:03:53.422Z,2.50
2022-10-02T01:06:24.170Z,2.42
2022-10-02T01:08:53.622Z,2.05
2022-10-02T01:11:22.113Z,2.22
2022-10-02T01:13:50.108Z,1.95
2022-10-02T01:16:18.449Z,2.97
2022-10-02T01:18:48.026Z,2.03
2022-10-02T01:21:17.866Z,3.22
2022-10-02T01:23:47.394Z,2.67
2022-10-02T01:26:17.040Z,2.22
2022-10-02T01:28:45.066Z,2.72
2022-10-02T01:31:14.709Z,2.10
2022-10-02T01:33:44.169Z,2.22
2022-10-02T01:36:12.456Z,2.92
2022-10-02T01:38:40.909Z,2.47
2022-10-02T01:41:11.397Z,2.20
2022-10-02T01:43:42.755Z,2.03
2022-10-02T01:46:25.784Z,3.30
2022-10-02T01:48:59.333Z,2.47
2022-10-02T01:51:33.316Z,1.85
2022-10-02T01:57:29.065Z,2.15
2022-10-02T02:00:04.383Z,2.60
2022-10-02T02:02:37.654Z,2.17
2022-10-02T02:05:09.223Z,2.60
2022-10-02T02:07:42.980Z,2.30
2022-10-02T02:10:14.660Z,2.75
2022-10-02T02:12:44.252Z,2.28
2022-10-02T02:15:16.922Z,2.28
2022-10-02T02:17:47.547Z,2.45
2022-10-02T02:20:18.194Z,3.17
2022-10-02T02:22:48.016Z,2.03
2022-10-02T02:25:17.909Z,2.53
2022-10-02T02:27:48.706Z,2.08
2022-10-02T02:30:18.746Z,2.67
2022-10-02T02:32:50.411Z,2.65
2022-10-02T02:35:20.179Z,2.65
2022-10-02T02:37:50.463Z,2.03
2022-10-02T02:40:21.199Z,1.98
2022-10-02T02:42:52.876Z,2.63
2022-10-02T02:45:23.937Z,2.00
2022-10-02T02:47:53.241Z,3.05
2022-10-02T02:50:22.953Z,1.92
2022-10-02T02:52:53.851Z,2.05
2022-10-02T02:55:23.832Z,1.92
2022-10-02T02:57:55.863Z,3.42
2022-10-02T03:00:25.785Z,2.97
2022-10-02T03:02:54.760Z,2.97
2022-10-02T03:05:24.495Z,2.53
2022-10-02T03:07:54.758Z,2.67
2022-10-02T03:10:28.922Z,2.20
2022-10-02T03:13:01.593Z,2.78
2022-10-02T03:15:33.952Z,2.53
2022-10-02T03:18:15.939Z,2.35
2022-10-02T03:20:47.012Z,2.47
2022-10-02T03:23:18.761Z,2.63
2022-10-02T03:25:50.121Z,2.35
2022-10-02T03:28:32.013Z,3.13
2022-10-02T03:31:09.760Z,3.47
2022-10-02T03:33:39.026Z,3.47
2022-10-02T03:36:07.339Z,3.70
2022-10-02T03:38:35.671Z,2.50
2022-10-02T03:41:03.525Z,2.85
2022-10-02T03:43:31.817Z,3.42
2022-10-02T03:45:59.891Z,3.33
2022-10-02T03:48:29.121Z,2.92
2022-10-02T03:50:57.115Z,3.50
2022-10-02T03:53:26.631Z,3.70
2022-10-02T03:55:55.695Z,2.70
2022-10-02T03:58:23.489Z,3.40
2022-10-02T04:00:56.152Z,2.90
2022-10-02T04:03:25.511Z,4.53
2022-10-02T04:05:57.848Z,2.78
2022-10-02T04:08:28.947Z,3.35
2022-10-02T04:10:58.587Z,3.15
2022-10-02T04:13:30.101Z,2.90
2022-10-02T04:16:02.304Z,3.03
2022-10-02T04:18:33.465Z,3.13
2022-10-02T04:21:04.913Z,3.65
2022-10-02T04:23:34.302Z,4.07
2022-10-02T04:26:04.140Z,3.42
2022-10-02T04:28:35.907Z,3.60
2022-10-02T04:31:03.733Z,3.50
2022-10-02T04:33:36.376Z,3.53
2022-10-02T04:36:11.701Z,3.20
2022-10-02T04:38:50.094Z,3.10
2022-10-02T04:41:28.159Z,2.72
2022-10-02T04:44:03.560Z,3.10
2022-10-02T04:46:45.814Z,3.55
2022-10-02T04:49:42.214Z,3.28
2022-10-02T04:52:18.664Z,3.40
2022-10-02T04:54:58.906Z,3.20
2022-10-02T04:57:37.390Z,2.92
2022-10-02T05:00:08.456Z,3.30
2022-10-02T05:02:40.528Z,4.28
2022-10-02T05:05:16.765Z,3.15
2022-10-02T05:07:53.910Z,3.55
2022-10-02T05:10:33.263Z,3.47
2022-10-02T05:13:07.679Z,5.03
2022-10-02T05:15:54.077Z,3.83
2022-10-02T05:18:26.759Z,3.28
2022-10-02T05:21:01.988Z,4.78
2022-10-02T05:23:41.310Z,3.58
2022-10-02T05:26:23.414Z,3.97
2022-10-02T05:28:56.612Z,3.95
2022-10-02T05:31:31.620Z,5.40
2022-10-02T05:34:06.697Z,4.47
2022-10-02T05:36:46.909Z,4.68
2022-10-02T05:39:19.268Z,3.90
2022-10-02T05:41:50.759Z,3.65
2022-10-02T05:44:20.405Z,4.72
2022-10-02T05:46:52.405Z,3.38
2022-10-02T05:49:21.633Z,3.67
2022-10-02T05:51:53.789Z,3.33
2022-10-02T05:54:28.007Z,6.43
2022-10-02T05:56:57.476Z,3.72
2022-10-02T05:59:28.278Z,3.53
2022-10-02T06:01:56.742Z,3.38
2022-10-02T06:04:28.362Z,3.55
2022-10-02T06:06:57.261Z,3.55
2022-10-02T06:09:27.300Z,3.38
2022-10-02T06:11:59.257Z,3.30
2022-10-02T06:14:29.860Z,3.50
2022-10-02T06:17:00.478Z,3.42
2022-10-02T06:19:30.935Z,3.53
2022-10-02T06:22:00.961Z,3.60
2022-10-02T06:24:34.273Z,3.25
2022-10-02T06:27:05.156Z,2.85
2022-10-02T06:29:35.581Z,4.28
2022-10-02T06:32:08.149Z,6.18
2022-10-02T06:34:35.942Z,4.60
2022-10-02T06:37:12.783Z,4.00
2022-10-02T06:39:50.064Z,3.55
2022-10-02T06:42:24.151Z,3.30
2022-10-02T06:44:56.988Z,3.35
2022-10-02T06:47:34.236Z,4.03
2022-10-02T06:50:13.081Z,3.08
2022-10-02T06:52:46.089Z,3.33
2022-10-02T06:55:23.783Z,3.67
2022-10-02T06:58:01.236Z,4.10
2022-10-02T07:00:29.777Z,2.95
2022-10-02T07:03:17.603Z,3.38
2022-10-02T07:05:55.070Z,3.25
2022-10-02T07:08:28.347Z,3.05
2022-10-02T07:11:03.560Z,3.20
2022-10-02T07:13:38.648Z,3.42
2022-10-02T07:16:11.745Z,3.85
2022-10-02T07:18:45.531Z,3.33
2022-10-02T07:21:17.755Z,3.22
2022-10-02T07:23:51.915Z,2.97
2022-10-02T07:26:29.084Z,3.53
2022-10-02T07:29:00.753Z,3.10
2022-10-02T07:31:33.076Z,3.60
2022-10-02T07:34:07.844Z,2.75
2022-10-02T07:36:43.265Z,3.55
2022-10-02T07:39:16.677Z,3.45
2022-10-02T07:42:02.578Z,3.50
2022-10-02T07:44:35.699Z,4.22
2022-10-02T07:49:37.912Z,3.67
2022-10-02T07:52:11.766Z,3.10
2022-10-02T07:54:50.738Z,3.25
2022-10-02T07:57:27.856Z,2.92
2022-10-02T08:00:01.375Z,3.03
2022-10-02T08:02:33.567Z,3.10
2022-10-02T08:05:03.849Z,3.70
2022-10-02T08:07:32.103Z,3.28
2022-10-02T08:10:03.367Z,3.40
2022-10-02T08:12:36.551Z,4.18
2022-10-02T08:15:06.076Z,3.13
2022-10-02T08:17:36.638Z,4.65
2022-10-02T08:20:06.147Z,3.80
2022-10-02T08:22:35.617Z,3.58
2022-10-02T08:25:06.512Z,4.13
2022-10-02T08:27:46.510Z,3.47
2022-10-02T08:30:14.942Z,4.50
2022-10-02T08:32:44.064Z,4.18
2022-10-02T08:35:12.979Z,4.43
2022-10-02T08:37:44.985Z,3.95
2022-10-02T08:40:23.283Z,3.70
2022-10-02T08:43:05.103Z,4.20
2022-10-02T08:46:02.453Z,5.13
2022-10-02T08:48:45.427Z,3.35
2022-10-02T08:51:31.733Z,3.97
2022-10-02T08:54:15.565Z,3.75
2022-10-02T08:56:53.848Z,2.85
2022-10-02T08:59:42.259Z,3.00
2022-10-02T09:02:37.005Z,2.97
2022-10-02T09:05:23.491Z,4.10
2022-10-02T09:08:09.202Z,3.20
2022-10-02T09:10:55.653Z,3.72
2022-10-02T09:13:54.247Z,3.13
2022-10-02T09:16:29.548Z,3.33
2022-10-02T09:19:01.049Z,3.85
2022-10-02T09:21:41.078Z,4.35
2022-10-02T09:24:38.790Z,4.47
2022-10-02T09:27:23.288Z,2.95
2022-10-02T09:29:59.588Z,3.40
2022-10-02T09:32:50.391Z,3.40
2022-10-02T09:35:37.067Z,3.92
2022-10-02T09:38:29.771Z,4.80
2022-10-02T09:41:23.405Z,5.43
2022-10-02T09:44:06.323Z,4.22
2022-10-02T09:46:53.114Z,4.78
2022-10-02T09:49:34.391Z,3.58
2022-10-02T09:52:16.343Z,4.78
2022-10-02T09:54:59.964Z,5.38
2022-10-02T09:57:54.502Z,3.00
2022-10-02T10:00:26.470Z,4.40
2022-10-02T10:03:13.259Z,4.68
2022-10-02T10:06:14.370Z,3.72
2022-10-02T10:09:00.542Z,3.42
2022-10-02T10:11:49.257Z,3.03
2022-10-02T10:14:34.874Z,3.78
2022-10-02T10:17:19.436Z,3.72
2022-10-02T10:19:58.253Z,3.40
2022-10-02T10:22:41.085Z,4.72
2022-10-02T10:25:28.582Z,4.45
2022-10-02T10:28:08.501Z,3.60
2022-10-02T10:31:02.745Z,3.35
2022-10-02T10:33:53.334Z,2.75
2022-10-02T10:36:49.535Z,3.17
2022-10-02T10:39:37.300Z,4.13
2022-10-02T10:42:19.926Z,3.33
2022-10-02T10:44:56.265Z,3.30
2022-10-02T10:47:39.025Z,2.75
2022-10-02T10:50:18.996Z,3.22
2022-10-02T10:53:14.732Z,3.50
2022-10-02T10:56:07.246Z,3.42
2022-10-02T10:58:39.776Z,2.70
2022-10-02T11:01:14.195Z,3.40
2022-10-02T11:04:00.094Z,3.05
2022-10-02T11:06:45.967Z,2.70
2022-10-02T11:09:29.035Z,4.47
2022-10-02T11:12:10.059Z,3.90
2022-10-02T11:14:44.232Z,4.93
2022-10-02T11:17:29.132Z,5.65
2022-10-02T11:20:04.175Z,4.63
2022-10-02T11:22:50.565Z,3.60
2022-10-02T11:25:36.350Z,4.60
2022-10-02T11:28:14.975Z,3.35
2022-10-02T11:30:50.169Z,3.83
2022-10-02T11:33:36.184Z,3.58
2022-10-02T11:36:18.970Z,3.47
2022-10-02T11:39:05.795Z,3.28
2022-10-02T11:41:43.643Z,4.45
2022-10-02T11:44:19.182Z,4.53
2022-10-02T11:47:12.077Z,4.13
2022-10-02T11:49:49.829Z,3.40
2022-10-02T11:52:29.636Z,3.33
2022-10-02T11:55:03.167Z,2.60
2022-10-02T11:57:34.458Z,3.83
2022-10-02T12:00:09.085Z,2.88
2022-10-02T12:02:39.290Z,2.88
2022-10-02T12:05:18.339Z,3.53
2022-10-02T12:07:52.220Z,2.80
2022-10-02T12:10:36.159Z,3.80
2022-10-02T12:13:16.193Z,3.17
2022-10-02T12:15:52.041Z,3.35
2022-10-02T12:18:25.184Z,2.40
2022-10-02T12:24:04.376Z,3.25
2022-10-02T12:26:56.627Z,2.65
2022-10-02T12:29:27.682Z,3.33
2022-10-02T12:32:00.393Z,2.78
2022-10-02T12:34:34.406Z,2.08
2022-10-02T12:37:06.374Z,3.72
2022-10-02T12:39:41.557Z,2.75
2022-10-02T12:42:27.505Z,3.45
2022-10-02T12:45:11.726Z,2.83
2022-10-02T12:47:49.504Z,2.90
2022-10-02T12:50:23.439Z,2.60
2022-10-02T12:53:00.598Z,2.83
2022-10-02T12:55:58.613Z,3.03
2022-10-02T12:58:29.621Z,2.95
2022-10-02T13:01:21.447Z,2.70
2022-10-02T13:04:11.018Z,2.58
2022-10-02T13:06:49.487Z,3.03
2022-10-02T13:09:20.828Z,3.05
2022-10-02T13:11:56.413Z,3.20
2022-10-02T13:14:33.344Z,3.40
2022-10-02T13:17:10.157Z,3.40
2022-10-02T13:19:43.749Z,4.05
2022-10-02T13:22:14.335Z,3.03
2022-10-02T13:24:47.585Z,2.90
2022-10-02T13:27:22.410Z,3.20
2022-10-02T13:30:04.162Z,3.90
2022-10-02T13:32:41.024Z,3.45
2022-10-02T13:35:22.206Z,3.42
2022-10-02T13:37:56.039Z,3.42
2022-10-02T13:40:28.164Z,2.92
2022-10-02T13:43:13.359Z,2.55
2022-10-02T13:45:47.854Z,3.97
2022-10-02T13:48:23.028Z,3.03
2022-10-02T13:51:00.503Z,3.45
2022-10-02T13:53:46.275Z,2.75
2022-10-02T13:56:22.215Z,4.05
2022-10-02T13:59:00.999Z,2.83
2022-10-02T14:01:36.327Z,3.42
2022-10-02T14:04:12.585Z,2.80
2022-10-02T14:06:43.981Z,3.35
2022-10-02T14:09:22.462Z,3.95
2022-10-02T14:12:01.796Z,3.50
2022-10-02T14:14:36.374Z,4.82
2022-10-02T14:17:10.468Z,3.85
2022-10-02T14:19:51.657Z,3.70
2022-10-02T14:22:29.503Z,2.00
2022-10-02T14:25:08.200Z,2.40
2022-10-02T14:27:56.321Z,2.75
2022-10-02T14:30:26.064Z,2.72
2022-10-02T14:33:00.495Z,2.65
2022-10-02T14:35:34.784Z,2.50
2022-10-02T14:38:11.973Z,3.05
2022-10-02T14:40:45.499Z,2.53
2022-10-02T14:43:33.542Z,3.10
2022-10-02T14:46:05.009Z,2.58
2022-10-02T14:48:53.583Z,3.30
2022-10-02T14:51:35.698Z,2.83
2022-10-02T14:54:13.532Z,2.50
2022-10-02T14:56:51.323Z,2.90
2022-10-02T14:59:32.771Z,2.97
2022-10-02T15:02:14.318Z,3.35
2022-10-02T15:04:51.620Z,3.08
2022-10-02T15:07:21.712Z,2.88
2022-10-02T15:09:59.459Z,3.80
2022-10-02T15:12:31.015Z,2.53
2022-10-02T15:15:03.170Z,2.90
2022-10-02T15:17:51.874Z,3.13
2022-10-02T15:20:26.007Z,2.85
2022-10-02T15:22:58.333Z,3.42
2022-10-02T15:25:35.343Z,3.20
2022-10-02T15:28:34.480Z,2.85
2022-10-02T15:30:57.859Z,2.10
2022-10-02T15:33:30.957Z,1.98
2022-10-02T15:38:42.537Z,1.83
2022-10-02T15:41:22.599Z,1.70
2022-10-02T15:44:00.683Z,2.35
2022-10-02T15:46:31.819Z,1.73
2022-10-02T15:49:01.888Z,2.13
2022-10-02T15:51:39.273Z,1.55
2022-10-02T15:54:12.038Z,1.45
2022-10-02T15:56:50.277Z,2.60
2022-10-02T15:59:32.206Z,2.30
2022-10-02T16:02:08.383Z,2.13
2022-10-02T16:04:39.754Z,1.42
2022-10-02T16:07:25.611Z,1.55
2022-10-02T16:10:00.522Z,1.83
2022-10-02T16:12:38.575Z,2.17
2022-10-02T16:15:14.482Z,2.88
2022-10-02T16:17:54.881Z,2.63
2022-10-02T16:20:43.622Z,2.78
2022-10-02T16:23:26.446Z,2.42
2022-10-02T16:26:04.052Z,3.25
2022-10-02T16:28:45.284Z,3.50
2022-10-02T16:31:20.401Z,3.42
2022-10-02T16:33:58.667Z,3.20
2022-10-02T16:36:31.904Z,2.67
2022-10-02T16:39:23.674Z,4.30
2022-10-02T16:41:59.456Z,3.33
2022-10-02T16:44:33.501Z,4.05
2022-10-02T16:47:06.366Z,7.35
2022-10-02T16:49:39.745Z,5.03
2022-10-02T16:52:11.469Z,2.88
2022-10-02T16:54:45.217Z,4.20
2022-10-02T16:57:20.954Z,4.90
2022-10-02T16:59:53.904Z,4.55
2022-10-02T17:02:23.774Z,3.28
2022-10-02T17:05:00.300Z,3.38
2022-10-02T17:07:31.680Z,4.50
2022-10-02T17:10:02.315Z,4.43
2022-10-02T17:12:33.555Z,5.15
2022-10-02T17:15:08.086Z,5.20
2022-10-02T17:17:49.168Z,4.22
2022-10-02T17:20:18.731Z,4.03
2022-10-02T17:22:52.910Z,4.15
2022-10-02T17:25:27.042Z,4.35
2022-10-02T17:27:57.683Z,4.57
2022-10-02T17:30:28.853Z,3.85
2022-10-02T17:33:06.963Z,3.42
2022-10-02T17:35:40.112Z,3.55
2022-10-02T17:38:17.829Z,3.58
2022-10-02T17:40:50.927Z,3.88
2022-10-02T17:45:52.551Z,3.15
2022-10-02T17:48:27.609Z,3.85
2022-10-02T17:51:14.178Z,3.38
2022-10-02T17:54:25.602Z,3.03
2022-10-02T17:57:06.312Z,2.85
2022-10-02T17:59:43.219Z,2.40
2022-10-02T18:02:22.454Z,2.28
2022-10-02T18:04:59.214Z,2.75
2022-10-02T18:07:33.774Z,1.50
2022-10-02T18:10:04.755Z,2.10
2022-10-02T18:12:46.630Z,1.90
2022-10-02T18:15:24.400Z,2.47
2022-10-02T18:18:01.605Z,2.78
2022-10-02T18:20:34.812Z,4.20
2022-10-02T18:23:08.464Z,2.97
2022-10-02T18:25:42.784Z,1.70
2022-10-02T18:28:21.266Z,1.70
2022-10-02T18:30:54.903Z,2.53
2022-10-02T18:33:35.832Z,2.50
2022-10-02T18:36:12.679Z,3.63
2022-10-02T18:38:48.293Z,3.33
2022-10-02T18:41:21.484Z,3.28
2022-10-02T18:43:59.880Z,3.75
2022-10-02T18:46:36.319Z,3.75
2022-10-02T18:49:12.832Z,3.30
2022-10-02T18:52:05.143Z,2.83
2022-10-02T18:54:41.424Z,2.85
2022-10-02T18:57:25.915Z,2.63
2022-10-02T19:00:00.056Z,2.78
2022-10-02T19:02:35.061Z,2.47
2022-10-02T19:05:26.791Z,2.47
2022-10-02T19:08:00.860Z,1.92
2022-10-02T19:10:40.182Z,2.60
2022-10-02T19:13:24.102Z,3.15
2022-10-02T19:15:53.025Z,2.97
2022-10-02T19:18:22.517Z,2.35
2022-10-02T19:20:55.718Z,3.13
2022-10-02T19:23:27.140Z,2.58
2022-10-02T19:25:56.074Z,2.35
2022-10-02T19:28:26.482Z,3.58
2022-10-02T19:30:55.992Z,2.72
2022-10-02T19:33:28.221Z,3.13
2022-10-02T19:35:56.045Z,2.77
2022-10-02T19:38:28.505Z,2.83
2022-10-02T19:41:00.616Z,3.15
2022-10-02T19:43:30.937Z,3.58
2022-10-02T19:46:00.559Z,2.65
2022-10-02T19:48:29.320Z,2.95
2022-10-02T19:50:58.528Z,4.55
2022-10-02T19:53:30.439Z,2.50
2022-10-02T19:55:59.532Z,3.90
2022-10-02T19:58:30.166Z,3.00
2022-10-02T20:00:58.994Z,4.22
2022-10-02T20:03:29.626Z,3.45
2022-10-02T20:05:58.689Z,4.15
2022-10-02T20:08:30.193Z,4.05
2022-10-02T20:11:00.356Z,3.45
2022-10-02T20:13:36.941Z,3.13
2022-10-02T20:16:24.913Z,2.47
2022-10-02T20:18:53.502Z,2.88
2022-10-02T20:21:25.156Z,2.72
2022-10-02T20:23:57.414Z,2.97
2022-10-02T20:26:28.370Z,2.50
2022-10-02T20:28:58.202Z,3.30
2022-10-02T20:31:35.994Z,3.45
2022-10-02T20:34:06.801Z,3.45
2022-10-02T20:36:38.737Z,2.97
2022-10-02T20:39:09.800Z,3.90
2022-10-02T20:41:42.333Z,3.80
2022-10-02T20:44:10.330Z,4.57
2022-10-02T20:47:03.078Z,3.55
2022-10-02T20:49:45.960Z,3.72
2022-10-02T20:52:34.398Z,3.75
2022-10-02T20:55:10.539Z,4.30
2022-10-02T20:58:01.000Z,3.72
2022-10-02T21:00:34.260Z,4.53
2022-10-02T21:03:21.549Z,4.05
2022-10-02T21:05:59.410Z,4.90
2022-10-02T21:08:40.693Z,3.83
2022-10-02T21:11:28.093Z,3.55
2022-10-02T21:14:15.608Z,3.70
2022-10-02T21:16:56.528Z,2.67
2022-10-02T21:19:36.633Z,2.22
2022-10-02T21:22:28.862Z,2.50
2022-10-02T21:25:18.134Z,2.13
2022-10-02T21:28:13.683Z,2.28
2022-10-02T21:30:47.546Z,2.60
2022-10-02T21:33:19.048Z,2.92
2022-10-02T21:35:53.537Z,2.50
2022-10-02T21:38:46.205Z,2.88
2022-10-02T21:41:41.029Z,3.20
2022-10-02T21:44:29.629Z,3.42
2022-10-02T21:47:12.655Z,3.60
2022-10-02T21:49:59.250Z,2.75
2022-10-02T21:52:48.108Z,2.83
2022-10-02T21:55:31.394Z,3.35
2022-10-02T22:00:27.978Z,2.42
2022-10-02T22:03:13.554Z,2.88
2022-10-02T22:06:05.265Z,2.50
2022-10-02T22:08:39.150Z,2.85
2022-10-02T22:11:12.613Z,4.22
2022-10-02T22:13:43.675Z,3.03
2022-10-02T22:16:19.038Z,3.25
2022-10-02T22:18:50.050Z,3.60
2022-10-02T22:21:36.516Z,4.72
2022-10-02T22:24:14.312Z,4.63
2022-10-02T22:26:52.691Z,5.03
2022-10-02T22:29:23.707Z,5.18
2022-10-02T22:32:16.964Z,4.90
2022-10-02T22:34:50.628Z,3.80
2022-10-02T22:37:27.949Z,4.20
2022-10-02T22:40:02.022Z,3.63
2022-10-02T22:42:34.920Z,5.07
2022-10-02T22:45:05.531Z,3.63
2022-10-02T22:47:36.754Z,4.18
2022-10-02T22:50:07.512Z,4.10
2022-10-02T22:52:38.059Z,3.08
2022-10-02T22:55:07.920Z,3.08
2022-10-02T22:57:40.186Z,2.65
2022-10-02T23:00:13.344Z,2.50
2022-10-02T23:02:45.679Z,2.22
2022-10-02T23:05:15.540Z,3.42
2022-10-02T23:07:47.338Z,2.75
2022-10-02T23:10:18.582Z,1.88
2022-10-02T23:12:56.459Z,2.42
2022-10-02T23:15:30.960Z,1.70
2022-10-02T23:18:00.695Z,3.13
2022-10-02T23:20:31.841Z,2.55
2022-10-02T23:23:02.659Z,2.65
2022-10-02T23:25:32.451Z,2.00
2022-10-02T23:28:05.004Z,2.28
2022-10-02T23:30:35.503Z,2.75
2022-10-02T23:33:05.673Z,2.40
2022-10-02T23:35:38.451Z,2.00
2022-10-02T23:38:08.618Z,2.38
2022-10-02T23:41:10.348Z,2.83
2022-10-02T23:43:43.141Z,2.97
2022-10-02T23:46:14.829Z,2.53
2022-10-02T23:48:43.212Z,2.38
2022-10-02T23:51:16.036Z,2.38
2022-10-02T23:54:08.201Z,2.40
2022-10-02T23:56:45.564Z,2.72
2022-10-02T23:59:24.104Z,2.50
